Terminal Aerodrome Forecast
Issued by NWS

Home | Current Version | Previous Version | Text Only | Print | Product List | Glossary On
Versions: 1 2 3 4 5 6 7 8 9 10 11 12 13 14 15 16 17
000
FTUS43 KDVN 241100
TAFBRL
TAF
KBRL 241120Z 2412/2512 12015G23KT P6SM VCSH BKN070
     FM241800 16013G20KT 6SM -SHRA BR OVC035
     FM242000 21010KT 3SM RA BR VCTS OVC020CB
     FM250200 31012KT 6SM -RA BKN030
     FM250700 32008KT P6SM SKC=

USA.gov is the U.S. government's official web portal to all federal, state and local government web resources and services.